createdAt,value
2023-05-01T00:00:27.018Z,42.53
2023-05-01T00:02:54.640Z,42.40
2023-05-01T00:05:21.669Z,42.47
2023-05-01T00:07:48.885Z,42.43
2023-05-01T00:10:15.734Z,42.25
2023-05-01T00:12:42.670Z,42.13
2023-05-01T00:15:10.339Z,42.02
2023-05-01T00:17:37.204Z,41.95
2023-05-01T00:20:05.523Z,41.81
2023-05-01T00:22:32.625Z,41.72
2023-05-01T00:24:59.476Z,41.49
2023-05-01T00:27:26.427Z,41.31
2023-05-01T00:29:53.352Z,41.24
2023-05-01T00:32:20.313Z,41.18
2023-05-01T00:34:48.656Z,41.01
2023-05-01T00:37:15.584Z,40.78
2023-05-01T00:39:42.517Z,40.69
2023-05-01T00:42:09.467Z,40.69
2023-05-01T00:44:36.532Z,40.73
2023-05-01T00:47:04.537Z,40.77
2023-05-01T00:49:32.164Z,40.81
2023-05-01T00:51:59.328Z,40.98
2023-05-01T00:54:27.908Z,41.07
2023-05-01T00:56:54.829Z,41.36
2023-05-01T00:59:22.245Z,41.73
2023-05-01T01:01:49.136Z,42.31
2023-05-01T01:04:16.196Z,42.76
2023-05-01T01:06:43.920Z,43.20
2023-05-01T01:09:33.260Z,43.50
2023-05-01T01:12:09.722Z,43.82
2023-05-01T01:14:50.933Z,44.15
2023-05-01T01:17:23.507Z,44.42
2023-05-01T01:19:54.386Z,44.70
2023-05-01T01:22:23.725Z,44.99
2023-05-01T01:25:15.039Z,45.25
2023-05-01T01:28:11.770Z,45.55
2023-05-01T01:31:18.198Z,45.88
2023-05-01T01:33:55.158Z,46.16
2023-05-01T01:36:43.601Z,46.40
2023-05-01T01:39:30.229Z,46.52
2023-05-01T01:41:58.221Z,46.70
2023-05-01T01:44:28.191Z,46.94
2023-05-01T01:46:55.142Z,47.09
2023-05-01T01:49:24.794Z,47.29
2023-05-01T01:51:52.665Z,47.43
2023-05-01T01:54:23.921Z,47.59
2023-05-01T01:56:51.086Z,47.90
2023-05-01T01:59:17.940Z,48.15
2023-05-01T02:01:45.844Z,48.42
2023-05-01T02:04:12.988Z,48.56
2023-05-01T02:06:39.981Z,48.90
2023-05-01T02:09:07.770Z,49.26
2023-05-01T02:11:35.434Z,49.57
2023-05-01T02:14:03.931Z,49.85
2023-05-01T02:16:31.870Z,50.09
2023-05-01T02:18:58.882Z,50.28
2023-05-01T02:21:26.624Z,50.46
2023-05-01T02:23:54.899Z,50.70
2023-05-01T02:26:21.998Z,50.96
2023-05-01T02:28:48.905Z,51.20
2023-05-01T02:31:15.759Z,51.52
2023-05-01T02:33:42.807Z,51.69
2023-05-01T02:36:09.859Z,51.90
2023-05-01T02:38:36.812Z,52.11
2023-05-01T02:41:04.086Z,52.21
2023-05-01T02:43:32.382Z,52.33
2023-05-01T02:45:59.544Z,52.41
2023-05-01T02:48:28.000Z,52.45
2023-05-01T02:50:56.080Z,52.58
2023-05-01T02:53:23.060Z,52.71
2023-05-01T02:55:52.842Z,52.83
2023-05-01T02:58:19.854Z,52.93
2023-05-01T03:00:48.108Z,53.02
2023-05-01T03:03:16.069Z,53.16
2023-05-01T03:05:43.089Z,53.35
2023-05-01T03:08:11.749Z,53.47
2023-05-01T03:10:44.682Z,53.61
2023-05-01T03:13:11.883Z,53.73
2023-05-01T03:15:39.082Z,53.91
2023-05-01T03:18:06.713Z,53.92
2023-05-01T03:20:34.322Z,54.00
2023-05-01T03:23:02.459Z,54.08
2023-05-01T03:25:29.769Z,54.05
2023-05-01T03:27:56.602Z,54.15
2023-05-01T03:30:23.665Z,54.20
2023-05-01T03:32:51.848Z,54.19
2023-05-01T03:35:22.748Z,54.27
2023-05-01T03:37:50.050Z,54.29
2023-05-01T03:40:35.734Z,54.37
2023-05-01T03:43:41.362Z,54.36
2023-05-01T03:46:14.200Z,54.42
2023-05-01T03:48:42.220Z,54.47
2023-05-01T03:51:09.670Z,54.53
2023-05-01T03:53:36.983Z,54.53
2023-05-01T03:56:05.492Z,54.56
2023-05-01T03:58:32.582Z,54.51
2023-05-01T04:01:01.136Z,54.50
2023-05-01T04:03:29.028Z,54.39
2023-05-01T04:05:56.459Z,54.47
2023-05-01T04:08:23.660Z,54.20
2023-05-01T04:10:50.617Z,54.19
2023-05-01T04:13:17.658Z,53.97
2023-05-01T04:15:46.448Z,53.90
2023-05-01T04:18:13.536Z,53.82
2023-05-01T04:20:40.667Z,53.73
2023-05-01T04:23:09.572Z,53.58
2023-05-01T04:25:37.090Z,53.49
2023-05-01T04:28:10.637Z,53.40
2023-05-01T04:30:37.591Z,53.08
2023-05-01T04:33:11.615Z,52.91
2023-05-01T04:35:39.662Z,52.58
2023-05-01T04:38:07.230Z,52.05
2023-05-01T04:40:34.245Z,51.65
2023-05-01T04:43:01.295Z,51.28
2023-05-01T04:45:28.559Z,50.92
2023-05-01T04:47:55.988Z,50.78
2023-05-01T04:50:23.004Z,50.47
2023-05-01T04:52:50.272Z,50.14
2023-05-01T04:55:17.631Z,49.63
2023-05-01T04:58:10.688Z,49.14
2023-05-01T05:00:37.580Z,48.78
2023-05-01T05:03:06.923Z,48.37
2023-05-01T05:05:34.186Z,47.90
2023-05-01T05:08:02.589Z,47.43
2023-05-01T05:10:37.991Z,47.25
2023-05-01T05:13:34.213Z,46.92
2023-05-01T05:16:05.998Z,46.84
2023-05-01T05:18:33.048Z,46.55
2023-05-01T05:21:03.815Z,46.27
2023-05-01T05:23:31.354Z,45.92
2023-05-01T05:26:01.382Z,45.82
2023-05-01T05:28:28.663Z,45.28
2023-05-01T05:30:56.372Z,45.13
2023-05-01T05:33:27.258Z,44.90
2023-05-01T05:35:54.658Z,44.71
2023-05-01T05:38:24.936Z,44.03
2023-05-01T05:40:54.751Z,43.89
2023-05-01T05:43:22.317Z,43.86
2023-05-01T05:45:49.532Z,43.73
2023-05-01T05:48:16.976Z,43.57
2023-05-01T05:50:43.997Z,43.46
2023-05-01T05:53:11.959Z,42.80
2023-05-01T05:55:39.046Z,42.14
2023-05-01T05:58:06.901Z,41.38
2023-05-01T06:00:34.674Z,40.69
2023-05-01T06:03:04.462Z,40.37
2023-05-01T06:05:31.897Z,40.07
2023-05-01T06:07:58.855Z,39.83
2023-05-01T06:10:25.941Z,39.46
2023-05-01T06:12:56.313Z,39.03
2023-05-01T06:15:32.993Z,38.56
2023-05-01T06:18:00.198Z,38.13
2023-05-01T06:20:27.257Z,37.88
2023-05-01T06:22:55.731Z,37.52
2023-05-01T06:25:28.145Z,36.92
2023-05-01T06:27:55.032Z,36.40
2023-05-01T06:30:22.943Z,35.88
2023-05-01T06:32:50.366Z,35.11
2023-05-01T06:35:17.775Z,35.00
2023-05-01T06:37:44.757Z,34.83
2023-05-01T06:40:12.186Z,33.74
2023-05-01T06:42:39.789Z,32.38
2023-05-01T06:45:07.984Z,31.59
2023-05-01T06:47:35.039Z,30.47
2023-05-01T06:50:05.052Z,28.79
2023-05-01T06:52:33.553Z,27.83
2023-05-01T06:55:00.594Z,26.13
2023-05-01T06:57:27.684Z,23.62
2023-05-01T06:59:54.729Z,21.25
2023-05-01T07:02:22.019Z,19.24
2023-05-01T07:04:49.056Z,17.51
2023-05-01T07:07:16.004Z,16.42
2023-05-01T07:09:43.676Z,16.00
2023-05-01T07:12:10.851Z,15.91
2023-05-01T07:14:37.985Z,15.32
2023-05-01T07:17:05.924Z,13.96
2023-05-01T07:19:32.780Z,13.04
2023-05-01T07:21:59.636Z,12.42
2023-05-01T07:24:26.469Z,11.88
2023-05-01T07:26:53.347Z,11.33
2023-05-01T07:29:20.226Z,11.16
2023-05-01T07:31:48.362Z,10.82
2023-05-01T07:34:17.300Z,10.48
2023-05-01T07:36:44.191Z,10.41
2023-05-01T07:39:11.287Z,10.23
2023-05-01T07:41:38.450Z,10.18
2023-05-01T07:44:05.481Z,10.10
2023-05-01T07:46:32.385Z,9.63
2023-05-01T07:48:59.505Z,9.47
2023-05-01T07:51:27.061Z,9.13
2023-05-01T07:53:53.924Z,9.68
2023-05-01T07:56:21.498Z,10.84
2023-05-01T07:58:48.421Z,12.32
2023-05-01T08:01:15.404Z,13.63
2023-05-01T08:03:42.680Z,14.92
2023-05-01T08:06:09.845Z,16.05
2023-05-01T08:08:36.877Z,17.45
2023-05-01T08:11:04.625Z,18.41
2023-05-01T08:13:31.674Z,19.32
2023-05-01T08:16:03.144Z,20.14
2023-05-01T08:18:30.908Z,21.00
2023-05-01T08:20:57.763Z,21.81
2023-05-01T08:23:25.521Z,22.42
2023-05-01T08:25:52.708Z,22.93
2023-05-01T08:28:22.454Z,23.18
2023-05-01T08:30:49.749Z,23.51
2023-05-01T08:33:17.889Z,23.68
2023-05-01T08:35:44.746Z,23.77
2023-05-01T08:38:12.109Z,23.81
2023-05-01T08:40:39.182Z,23.70
2023-05-01T08:43:06.153Z,23.84
2023-05-01T08:45:36.269Z,23.99
2023-05-01T08:48:07.408Z,24.27
2023-05-01T08:50:36.551Z,24.62
2023-05-01T08:53:04.380Z,24.59
2023-05-01T08:55:32.568Z,24.52
2023-05-01T08:57:59.779Z,24.46
2023-05-01T09:00:26.764Z,24.57
2023-05-01T09:02:53.648Z,24.90
2023-05-01T09:05:21.109Z,24.87
2023-05-01T09:07:48.238Z,24.96
2023-05-01T09:10:19.338Z,25.04
2023-05-01T09:12:51.886Z,24.94
2023-05-01T09:15:18.827Z,24.91
2023-05-01T09:17:45.803Z,24.83
2023-05-01T09:20:12.649Z,24.84
2023-05-01T09:22:39.540Z,24.69
2023-05-01T09:25:07.543Z,24.59
2023-05-01T09:27:35.506Z,24.60
2023-05-01T09:30:02.475Z,24.63
2023-05-01T09:32:29.895Z,25.02
2023-05-01T09:35:10.093Z,25.14
2023-05-01T09:37:37.234Z,24.93
2023-05-01T09:40:14.680Z,24.88
2023-05-01T09:42:52.017Z,24.71
2023-05-01T09:45:19.481Z,24.35
2023-05-01T09:47:46.781Z,24.31
2023-05-01T09:50:30.980Z,24.35
2023-05-01T09:52:57.891Z,24.54
2023-05-01T09:55:25.966Z,24.66
2023-05-01T09:57:53.177Z,24.84
2023-05-01T10:00:22.382Z,25.04
2023-05-01T10:02:50.330Z,25.15
2023-05-01T10:05:18.146Z,25.29
2023-05-01T10:08:15.323Z,25.32
2023-05-01T10:10:43.973Z,25.16
2023-05-01T10:13:15.297Z,24.95
2023-05-01T10:15:42.249Z,24.95
2023-05-01T10:18:10.490Z,24.87
2023-05-01T10:20:37.584Z,24.94
2023-05-01T10:23:04.676Z,25.16
2023-05-01T10:25:31.798Z,25.39
2023-05-01T10:27:58.848Z,25.40
2023-05-01T10:30:30.189Z,25.31
2023-05-01T10:32:59.358Z,25.18
2023-05-01T10:35:33.382Z,25.21
2023-05-01T10:38:05.586Z,25.05
2023-05-01T10:40:49.299Z,24.97
2023-05-01T10:43:30.611Z,24.78
2023-05-01T10:46:10.204Z,24.56
2023-05-01T10:48:40.889Z,24.71
2023-05-01T10:51:20.621Z,24.85
2023-05-01T10:53:49.100Z,24.81
2023-05-01T10:56:24.451Z,24.72
2023-05-01T10:58:58.553Z,24.69
2023-05-01T11:01:29.473Z,24.76
2023-05-01T11:03:57.258Z,24.75
2023-05-01T11:06:24.632Z,24.56
2023-05-01T11:08:52.195Z,24.22
2023-05-01T11:11:22.828Z,24.09
2023-05-01T11:14:11.449Z,23.87
2023-05-01T11:16:39.101Z,23.95
2023-05-01T11:19:07.835Z,24.16
2023-05-01T11:21:35.950Z,24.06
2023-05-01T11:24:06.959Z,24.00
2023-05-01T11:26:40.868Z,24.01
2023-05-01T11:29:08.295Z,24.06
2023-05-01T11:31:35.285Z,24.19
2023-05-01T11:34:02.333Z,24.43
2023-05-01T11:36:30.276Z,24.48
2023-05-01T11:39:01.566Z,24.37
2023-05-01T11:41:28.548Z,24.33
2023-05-01T11:43:58.251Z,24.56
2023-05-01T11:46:28.676Z,24.38
2023-05-01T11:48:58.889Z,24.23
2023-05-01T11:51:26.291Z,24.20
2023-05-01T11:54:03.649Z,24.30
2023-05-01T11:56:30.901Z,24.31
2023-05-01T11:58:59.301Z,24.29
2023-05-01T12:01:36.313Z,24.17
2023-05-01T12:04:03.879Z,24.05
2023-05-01T12:06:45.459Z,24.04
2023-05-01T12:09:15.622Z,24.00
2023-05-01T12:11:42.451Z,23.99
2023-05-01T12:14:10.242Z,24.00
2023-05-01T12:16:37.863Z,24.05
2023-05-01T12:19:04.818Z,23.82
2023-05-01T12:21:32.191Z,23.78
2023-05-01T12:24:19.072Z,23.75
2023-05-01T12:26:46.600Z,23.84
2023-05-01T12:29:13.809Z,24.03
2023-05-01T12:31:48.661Z,23.95
2023-05-01T12:34:15.736Z,24.01
2023-05-01T12:36:42.650Z,23.84
2023-05-01T12:39:10.541Z,23.73
2023-05-01T12:41:37.416Z,23.68
2023-05-01T12:44:24.208Z,23.65
2023-05-01T12:47:08.086Z,23.59
2023-05-01T12:49:37.237Z,23.78
2023-05-01T12:52:06.389Z,23.73
2023-05-01T12:54:37.945Z,23.45
2023-05-01T12:57:15.185Z,23.38
2023-05-01T12:59:43.374Z,23.43
2023-05-01T13:02:12.598Z,23.48
2023-05-01T13:04:39.668Z,23.20
2023-05-01T13:07:15.002Z,22.95
2023-05-01T13:09:59.190Z,22.91
2023-05-01T13:12:27.507Z,22.97
2023-05-01T13:14:54.447Z,23.11
2023-05-01T13:17:29.045Z,23.27
2023-05-01T13:20:04.187Z,23.51
2023-05-01T13:22:35.964Z,23.49
2023-05-01T13:25:15.332Z,23.56
2023-05-01T13:27:42.241Z,23.75
2023-05-01T13:30:10.259Z,23.71
2023-05-01T13:32:42.519Z,23.68
2023-05-01T13:35:10.077Z,23.57
2023-05-01T13:37:37.017Z,23.61
2023-05-01T13:40:04.475Z,23.37
2023-05-01T13:42:31.816Z,23.16
2023-05-01T13:44:58.811Z,23.26
2023-05-01T13:47:28.679Z,23.23
2023-05-01T13:49:55.890Z,23.29
2023-05-01T13:52:23.331Z,23.48
2023-05-01T13:54:56.216Z,23.53
2023-05-01T13:57:23.377Z,23.41
2023-05-01T13:59:50.324Z,23.30
2023-05-01T14:02:27.342Z,23.17
2023-05-01T14:04:54.566Z,23.00
2023-05-01T14:07:23.145Z,22.91
2023-05-01T14:09:55.050Z,22.94
2023-05-01T14:12:32.204Z,23.03
2023-05-01T14:15:01.398Z,23.10
2023-05-01T14:17:37.657Z,22.87
2023-05-01T14:20:05.747Z,22.73
2023-05-01T14:22:45.363Z,22.69
2023-05-01T14:25:23.401Z,22.65
2023-05-01T14:27:51.319Z,22.68
2023-05-01T14:30:29.817Z,22.73
2023-05-01T14:32:57.010Z,22.92
2023-05-01T14:35:24.930Z,22.97
2023-05-01T14:37:51.990Z,22.85
2023-05-01T14:40:21.670Z,22.95
2023-05-01T14:42:49.240Z,23.12
2023-05-01T14:45:19.167Z,23.18
2023-05-01T14:47:47.011Z,23.44
2023-05-01T14:50:23.806Z,23.66
2023-05-01T14:52:54.855Z,23.74
2023-05-01T14:55:29.584Z,23.78
2023-05-01T14:57:56.460Z,23.76
2023-05-01T15:00:24.003Z,23.66
2023-05-01T15:02:51.070Z,23.63
2023-05-01T15:05:18.220Z,23.67
2023-05-01T15:07:45.089Z,23.83
2023-05-01T15:10:12.122Z,24.19
2023-05-01T15:12:39.089Z,24.10
2023-05-01T15:15:07.459Z,24.23
2023-05-01T15:17:34.348Z,24.36
2023-05-01T15:20:01.324Z,24.08
2023-05-01T15:22:28.300Z,24.06
2023-05-01T15:24:55.162Z,24.05
2023-05-01T15:27:22.043Z,24.08
2023-05-01T15:29:48.874Z,24.13
2023-05-01T15:32:16.027Z,24.24
2023-05-01T15:34:43.062Z,24.32
2023-05-01T15:37:10.021Z,24.36
2023-05-01T15:39:38.196Z,24.53
2023-05-01T15:42:05.059Z,24.66
2023-05-01T15:44:32.102Z,24.63
2023-05-01T15:46:59.118Z,24.72
2023-05-01T15:49:26.404Z,24.80
2023-05-01T15:51:53.238Z,24.79
2023-05-01T15:54:20.228Z,24.84
2023-05-01T15:56:47.256Z,24.76
2023-05-01T15:59:14.615Z,24.62
2023-05-01T16:01:41.761Z,24.58
2023-05-01T16:04:08.821Z,24.62
2023-05-01T16:06:35.845Z,24.69
2023-05-01T16:09:03.028Z,24.65
2023-05-01T16:11:30.335Z,24.71
2023-05-01T16:13:57.339Z,24.83
2023-05-01T16:16:27.865Z,24.87
2023-05-01T16:18:58.938Z,25.11
2023-05-01T16:21:26.789Z,25.19
2023-05-01T16:23:57.534Z,25.26
2023-05-01T16:26:27.931Z,25.26
2023-05-01T16:29:05.295Z,25.26
2023-05-01T16:31:39.076Z,25.41
2023-05-01T16:34:07.249Z,25.47
2023-05-01T16:36:35.625Z,25.61
2023-05-01T16:39:02.705Z,25.74
2023-05-01T16:41:29.553Z,25.89
2023-05-01T16:44:00.068Z,25.97
2023-05-01T16:46:26.963Z,26.15
2023-05-01T16:48:53.901Z,26.31
2023-05-01T16:51:21.632Z,26.31
2023-05-01T16:53:48.566Z,26.38
2023-05-01T16:56:15.424Z,26.37
2023-05-01T16:58:44.009Z,26.51
2023-05-01T17:01:10.975Z,26.53
2023-05-01T17:03:38.408Z,26.51
2023-05-01T17:06:05.561Z,26.60
2023-05-01T17:08:32.978Z,26.65
2023-05-01T17:10:59.889Z,26.74
2023-05-01T17:13:26.887Z,26.85
2023-05-01T17:15:53.890Z,26.97
2023-05-01T17:18:20.825Z,27.16
2023-05-01T17:20:48.720Z,27.16
2023-05-01T17:23:16.128Z,27.34
2023-05-01T17:25:44.081Z,27.55
2023-05-01T17:28:11.205Z,27.64
2023-05-01T17:30:38.119Z,27.75
2023-05-01T17:33:05.213Z,27.83
2023-05-01T17:35:32.159Z,27.97
2023-05-01T17:37:59.057Z,28.00
2023-05-01T17:40:25.992Z,28.16
2023-05-01T17:42:52.929Z,28.22
2023-05-01T17:45:19.889Z,28.23
2023-05-01T17:47:46.842Z,28.27
2023-05-01T17:50:13.882Z,28.40
2023-05-01T17:52:41.490Z,28.62
2023-05-01T17:55:09.110Z,28.69
2023-05-01T17:57:37.120Z,28.73
2023-05-01T18:00:05.511Z,28.92
2023-05-01T18:02:39.813Z,28.99
2023-05-01T18:05:07.204Z,29.14
2023-05-01T18:07:34.111Z,29.15
2023-05-01T18:10:01.221Z,29.17
2023-05-01T18:12:29.449Z,29.25
2023-05-01T18:14:56.639Z,29.18
2023-05-01T18:17:24.090Z,29.38
2023-05-01T18:19:51.108Z,29.50
2023-05-01T18:22:17.969Z,29.67
2023-05-01T18:24:44.808Z,29.87
2023-05-01T18:27:12.118Z,29.99
2023-05-01T18:29:38.996Z,30.05
2023-05-01T18:32:06.369Z,30.12
2023-05-01T18:34:33.353Z,30.29
2023-05-01T18:37:00.380Z,30.43
2023-05-01T18:39:27.198Z,30.59
2023-05-01T18:41:54.387Z,30.74
2023-05-01T18:44:21.437Z,30.76
2023-05-01T18:46:48.554Z,30.76
2023-05-01T18:49:15.608Z,30.82
2023-05-01T18:51:42.459Z,30.98
2023-05-01T18:54:10.093Z,31.09
2023-05-01T18:56:37.268Z,31.18
2023-05-01T18:59:04.308Z,31.28
2023-05-01T19:01:31.566Z,31.17
2023-05-01T19:04:00.213Z,31.20
2023-05-01T19:06:27.258Z,31.05
2023-05-01T19:08:54.321Z,30.94
2023-05-01T19:11:21.737Z,30.88
2023-05-01T19:13:49.048Z,30.71
2023-05-01T19:16:16.160Z,30.70
2023-05-01T19:18:43.059Z,30.76
2023-05-01T19:21:11.232Z,31.04
2023-05-01T19:23:39.968Z,31.22
2023-05-01T19:26:08.110Z,31.14
2023-05-01T19:28:36.052Z,31.09
2023-05-01T19:31:04.151Z,31.04
2023-05-01T19:33:31.005Z,31.17
2023-05-01T19:35:57.969Z,31.02
2023-05-01T19:38:24.907Z,30.53
2023-05-01T19:40:51.782Z,30.56
2023-05-01T19:43:18.796Z,30.51
2023-05-01T19:45:45.971Z,30.43
2023-05-01T19:48:13.304Z,30.27
2023-05-01T19:50:40.417Z,29.99
2023-05-01T19:53:07.334Z,30.02
2023-05-01T19:55:34.498Z,30.19
2023-05-01T19:58:03.381Z,30.12
2023-05-01T20:00:30.227Z,30.16
2023-05-01T20:02:57.762Z,30.13
2023-05-01T20:05:28.384Z,30.08
2023-05-01T20:07:55.886Z,29.98
2023-05-01T20:10:22.965Z,30.10
2023-05-01T20:12:49.993Z,30.34
2023-05-01T20:15:16.982Z,30.45
2023-05-01T20:17:44.549Z,30.33
2023-05-01T20:20:11.568Z,30.40
2023-05-01T20:22:38.518Z,30.41
2023-05-01T20:25:09.393Z,30.28
2023-05-01T20:27:36.618Z,30.30
2023-05-01T20:30:04.079Z,30.32
2023-05-01T20:32:31.113Z,30.18
2023-05-01T20:34:58.104Z,30.20
2023-05-01T20:37:25.762Z,30.23
2023-05-01T20:39:52.715Z,30.06
2023-05-01T20:42:19.658Z,29.93
2023-05-01T20:44:46.911Z,29.91
2023-05-01T20:47:15.023Z,29.95
2023-05-01T20:49:41.947Z,29.98
2023-05-01T20:52:09.402Z,30.09
2023-05-01T20:54:37.275Z,30.06
2023-05-01T20:57:04.544Z,30.02
2023-05-01T20:59:31.336Z,29.84
2023-05-01T21:01:58.262Z,29.54
2023-05-01T21:04:25.284Z,29.05
2023-05-01T21:06:52.422Z,28.99
2023-05-01T21:09:19.396Z,28.78
2023-05-01T21:11:46.252Z,28.76
2023-05-01T21:14:13.192Z,28.75
2023-05-01T21:16:41.041Z,28.79
2023-05-01T21:19:08.128Z,28.80
2023-05-01T21:21:36.625Z,28.78
2023-05-01T21:24:03.756Z,28.53
2023-05-01T21:26:30.826Z,28.39
2023-05-01T21:28:58.174Z,28.29
2023-05-01T21:31:28.679Z,28.19
2023-05-01T21:33:55.878Z,28.24
2023-05-01T21:36:22.716Z,28.32
2023-05-01T21:38:49.571Z,28.42
2023-05-01T21:41:16.503Z,28.40
2023-05-01T21:43:43.673Z,28.36
2023-05-01T21:46:16.502Z,28.41
2023-05-01T21:48:43.713Z,28.31
2023-05-01T21:51:10.630Z,28.25
2023-05-01T21:53:40.400Z,28.17
2023-05-01T21:56:07.528Z,27.99
2023-05-01T21:58:34.482Z,27.96
2023-05-01T22:01:01.583Z,27.96
2023-05-01T22:03:28.699Z,27.79
2023-05-01T22:05:56.272Z,27.80
2023-05-01T22:08:23.689Z,27.91
2023-05-01T22:10:50.561Z,27.93
2023-05-01T22:13:17.412Z,28.10
2023-05-01T22:15:44.485Z,27.96
2023-05-01T22:18:11.714Z,28.06
2023-05-01T22:20:38.556Z,28.19
2023-05-01T22:23:05.729Z,28.14
2023-05-01T22:25:32.785Z,28.23
2023-05-01T22:28:01.465Z,28.23
2023-05-01T22:30:28.538Z,28.19
2023-05-01T22:32:55.935Z,28.15
2023-05-01T22:35:22.959Z,28.15
2023-05-01T22:37:49.892Z,28.20
2023-05-01T22:40:16.846Z,28.29
2023-05-01T22:42:43.690Z,28.31
2023-05-01T22:45:10.655Z,28.38
2023-05-01T22:47:37.658Z,28.43
2023-05-01T22:50:05.459Z,28.42
2023-05-01T22:52:32.584Z,28.48
2023-05-01T22:54:59.577Z,28.44
2023-05-01T22:57:26.370Z,28.48
2023-05-01T22:59:53.386Z,28.59
2023-05-01T23:02:20.380Z,28.61
2023-05-01T23:04:47.298Z,28.63
2023-05-01T23:07:14.333Z,28.68
2023-05-01T23:09:41.728Z,28.64
2023-05-01T23:12:09.640Z,28.55
2023-05-01T23:14:37.130Z,28.46
2023-05-01T23:17:04.896Z,28.62
2023-05-01T23:19:31.850Z,28.67
2023-05-01T23:22:11.074Z,28.52
2023-05-01T23:24:48.632Z,28.31
2023-05-01T23:27:17.063Z,28.44
2023-05-01T23:29:58.346Z,28.32
2023-05-01T23:32:27.971Z,28.23
2023-05-01T23:34:55.617Z,28.21
2023-05-01T23:37:22.452Z,28.05
2023-05-01T23:39:49.441Z,27.85
2023-05-01T23:42:16.366Z,27.74
2023-05-01T23:44:43.318Z,27.67
2023-05-01T23:47:10.775Z,27.38
2023-05-01T23:49:37.831Z,27.31
2023-05-01T23:52:05.709Z,27.20
2023-05-01T23:54:33.595Z,27.18
2023-05-01T23:57:00.940Z,27.26
2023-05-01T23:59:27.998Z,27.36
